Decoded Metar for KLDJ ( in _UNIDENTIFIED) (IATA:N/A) | Meteo·Mobile Aviation Weather
aviador You're here:

KLDJ Decoded Metar

in _UNIDENTIFIED
Report Time2018-08-22 06:35:00
UTC Time2018-08-22 07:00:46
Flight Rules ifr IFR
WindCalm
Visibility9999 m
Phenomena:N/A
Clouds:Overcast 005 Hf
Expected CloudBase > 400 ft AGL from Temp-Dew spread
Ceiling500 ft
Temp23°C (ISA +8)
Dew Point22°C (94% RH)
QNH1007 hPa
Density Alt1,509 ft
Elevation23 ft
Report Wrong Elevation
Raw Report
KLDJ 220635Z AUTO 00000KT 7SM OVC005 23/22 A2975 RMK AO2
T02310220=

Extra information for KLDJ:More info

Metar Taf Metar & Taf Last 4 Metars F.Rules Stats Wind Profile Meteogram Temp Stats Metar ALERT Operation Metar Decoded Social comments